createdAt,value
2019-06-08T00:00:34.365Z,10.50
2019-06-08T00:01:34.348Z,10.40
2019-06-08T00:02:34.346Z,10.60
2019-06-08T00:03:34.328Z,10.90
2019-06-08T00:04:34.320Z,10.40
2019-06-08T00:05:34.307Z,10.20
2019-06-08T00:06:34.296Z,10.80
2019-06-08T00:07:34.284Z,11.00
2019-06-08T00:08:34.271Z,10.70
2019-06-08T00:09:34.261Z,11.30
2019-06-08T00:10:34.252Z,11.00
2019-06-08T00:11:34.244Z,10.70
2019-06-08T00:12:34.230Z,11.40
2019-06-08T00:13:34.227Z,11.20
2019-06-08T00:14:34.209Z,10.80
2019-06-08T00:15:34.198Z,11.50
2019-06-08T00:16:34.199Z,11.30
2019-06-08T00:17:38.509Z,10.50
2019-06-08T00:18:35.161Z,11.20
2019-06-08T00:19:34.153Z,11.30
2019-06-08T00:20:34.140Z,11.60
2019-06-08T00:21:34.127Z,12.20
2019-06-08T00:22:34.117Z,11.70
2019-06-08T00:23:34.106Z,11.80
2019-06-08T00:24:34.098Z,12.00
2019-06-08T00:25:34.082Z,11.70
2019-06-08T00:26:34.072Z,10.70
2019-06-08T00:27:34.063Z,11.20
2019-06-08T00:28:34.052Z,11.30
2019-06-08T00:29:34.041Z,11.40
2019-06-08T00:30:35.236Z,11.60
2019-06-08T00:31:34.019Z,11.60
2019-06-08T00:32:34.044Z,12.20
2019-06-08T00:33:33.995Z,11.70
2019-06-08T00:34:33.991Z,11.80
2019-06-08T00:35:33.973Z,11.50
2019-06-08T00:36:33.961Z,12.50
2019-06-08T00:37:33.951Z,11.90
2019-06-08T00:38:33.941Z,12.40
2019-06-08T00:39:33.927Z,12.10
2019-06-08T00:40:33.924Z,12.80
2019-06-08T00:41:33.912Z,12.10
2019-06-08T00:42:33.897Z,11.80
2019-06-08T00:43:33.889Z,11.70
2019-06-08T00:44:33.875Z,12.30
2019-06-08T00:45:33.863Z,12.00
2019-06-08T00:46:33.860Z,12.20
2019-06-08T00:47:47.162Z,12.10
2019-06-08T00:48:34.827Z,12.00
2019-06-08T00:49:33.818Z,12.50
2019-06-08T00:50:33.806Z,12.10
2019-06-08T00:51:33.799Z,12.40
2019-06-08T00:52:33.784Z,12.00
2019-06-08T00:53:33.776Z,12.50
2019-06-08T00:54:33.766Z,12.30
2019-06-08T00:55:33.763Z,12.50
2019-06-08T00:56:33.744Z,12.70
2019-06-08T00:57:33.733Z,12.30
2019-06-08T00:58:33.718Z,12.50
2019-06-08T00:59:33.709Z,12.90
2019-06-08T01:00:33.697Z,12.40
2019-06-08T01:01:33.689Z,11.80
2019-06-08T01:02:33.676Z,12.00
2019-06-08T01:03:33.665Z,12.90
2019-06-08T01:04:33.661Z,13.20
2019-06-08T01:05:33.641Z,12.40
2019-06-08T01:06:33.632Z,12.80
2019-06-08T01:07:33.621Z,12.80
2019-06-08T01:08:33.623Z,13.20
2019-06-08T01:09:33.598Z,12.90
2019-06-08T01:10:33.588Z,13.00
2019-06-08T01:11:33.575Z,12.70
2019-06-08T01:12:33.565Z,12.20
2019-06-08T01:13:33.554Z,12.80
2019-06-08T01:14:33.550Z,13.00
2019-06-08T01:15:34.442Z,13.00
2019-06-08T01:16:33.522Z,12.90
2019-06-08T01:17:33.510Z,13.30
2019-06-08T01:18:33.501Z,13.30
2019-06-08T01:19:33.492Z,14.00
2019-06-08T01:20:33.476Z,13.90
2019-06-08T01:21:33.464Z,13.00
2019-06-08T01:22:33.454Z,13.40
2019-06-08T01:23:33.447Z,13.30
2019-06-08T01:24:33.464Z,12.90
2019-06-08T01:25:33.421Z,12.80
2019-06-08T01:26:33.412Z,13.00
2019-06-08T01:27:33.399Z,13.70
2019-06-08T01:28:33.393Z,13.40
2019-06-08T01:29:33.374Z,12.60
2019-06-08T01:30:33.366Z,13.30
2019-06-08T01:31:33.371Z,12.90
2019-06-08T01:32:33.497Z,13.30
2019-06-08T01:33:33.336Z,12.70
2019-06-08T01:34:33.324Z,13.30
2019-06-08T01:35:33.310Z,13.30
2019-06-08T01:36:33.301Z,13.00
2019-06-08T01:37:33.285Z,13.90
2019-06-08T01:38:33.283Z,13.50
2019-06-08T01:39:33.267Z,13.40
2019-06-08T01:40:33.256Z,13.20
2019-06-08T01:41:33.247Z,13.60
2019-06-08T01:42:33.235Z,14.00
2019-06-08T01:43:33.229Z,13.60
2019-06-08T01:44:33.211Z,13.90
2019-06-08T01:45:33.531Z,13.30
2019-06-08T01:46:33.187Z,13.40
2019-06-08T01:47:33.177Z,14.40
2019-06-08T01:48:33.166Z,14.90
2019-06-08T01:49:33.171Z,14.10
2019-06-08T01:50:33.184Z,14.50
2019-06-08T01:51:33.133Z,14.10
2019-06-08T01:52:33.121Z,13.90
2019-06-08T01:53:33.117Z,14.20
2019-06-08T01:54:33.384Z,14.30
2019-06-08T01:55:33.320Z,14.60
2019-06-08T01:56:33.427Z,14.30
2019-06-08T01:57:33.816Z,13.90
2019-06-08T01:58:33.478Z,13.80
2019-06-08T01:59:34.678Z,14.20
2019-06-08T02:00:39.392Z,14.00
2019-06-08T02:01:34.252Z,13.90
2019-06-08T02:02:34.205Z,13.20
2019-06-08T02:03:34.675Z,13.10
2019-06-08T02:04:33.528Z,12.70
2019-06-08T02:05:34.415Z,11.60
2019-06-08T02:06:32.966Z,10.50
2019-06-08T02:07:32.957Z,8.20
2019-06-08T02:08:32.942Z,8.10
2019-06-08T02:09:32.932Z,6.80
2019-06-08T02:10:32.994Z,7.00
2019-06-08T02:11:33.071Z,6.40
2019-06-08T02:12:33.136Z,5.70
2019-06-08T02:13:33.161Z,5.10
2019-06-08T02:14:33.248Z,4.30
2019-06-08T02:15:33.859Z,3.20
2019-06-08T02:16:33.343Z,2.70
2019-06-08T02:17:33.469Z,2.60
2019-06-08T02:18:44.106Z,2.40
2019-06-08T02:19:34.797Z,2.50
2019-06-08T02:20:33.072Z,2.50
2019-06-08T02:21:32.939Z,2.40
2019-06-08T02:22:33.110Z,2.10
2019-06-08T02:23:33.096Z,2.20
2019-06-08T02:24:33.383Z,2.20
2019-06-08T02:25:33.538Z,1.90
2019-06-08T02:26:35.157Z,2.00
2019-06-08T02:27:33.552Z,1.70
2019-06-08T02:28:33.640Z,2.00
2019-06-08T02:29:33.689Z,1.50
2019-06-08T02:30:36.006Z,1.50
2019-06-08T02:31:33.222Z,1.50
2019-06-08T02:32:33.505Z,1.50
2019-06-08T02:33:34.677Z,1.30
2019-06-08T02:34:34.732Z,1.60
2019-06-08T02:35:32.947Z,1.60
2019-06-08T02:36:33.745Z,1.50
2019-06-08T02:37:33.085Z,1.50
2019-06-08T02:38:34.621Z,1.40
2019-06-08T02:39:32.807Z,1.30
2019-06-08T02:40:34.576Z,1.50
2019-06-08T02:41:33.133Z,1.60
2019-06-08T02:42:33.082Z,1.30
2019-06-08T02:43:33.349Z,1.40
2019-06-08T02:44:34.291Z,1.50
2019-06-08T02:45:34.053Z,1.50
2019-06-08T02:46:33.320Z,1.40
2019-06-08T02:47:33.051Z,1.40
2019-06-08T02:48:33.597Z,1.30
2019-06-08T02:49:33.228Z,1.50
2019-06-08T02:50:33.042Z,1.40
2019-06-08T02:51:34.302Z,1.30
2019-06-08T02:52:34.348Z,1.50
2019-06-08T02:53:34.278Z,1.50
2019-06-08T02:54:34.719Z,1.20
2019-06-08T02:55:33.066Z,1.30
2019-06-08T02:56:33.936Z,1.50
2019-06-08T02:57:33.239Z,1.20
2019-06-08T02:58:33.580Z,1.30
2019-06-08T02:59:32.921Z,1.40
2019-06-08T03:00:33.659Z,1.60
2019-06-08T03:01:33.702Z,1.40
2019-06-08T03:02:33.903Z,1.40
2019-06-08T03:03:33.796Z,1.40
2019-06-08T03:04:32.455Z,1.40
2019-06-08T03:05:33.987Z,1.30
2019-06-08T03:06:34.537Z,1.60
2019-06-08T03:07:32.385Z,1.40
2019-06-08T03:08:32.838Z,1.50
2019-06-08T03:09:32.508Z,1.40
2019-06-08T03:10:32.939Z,1.50
2019-06-08T03:11:32.647Z,1.50
2019-06-08T03:12:32.992Z,1.40
2019-06-08T03:13:33.582Z,1.20
2019-06-08T03:14:33.318Z,1.20
2019-06-08T03:15:34.490Z,1.30
2019-06-08T03:16:33.347Z,1.40
2019-06-08T03:17:33.389Z,1.50
2019-06-08T03:18:33.642Z,1.30
2019-06-08T03:19:33.321Z,1.40
2019-06-08T03:20:33.449Z,1.30
2019-06-08T03:21:33.828Z,1.30
2019-06-08T03:22:34.036Z,1.00
2019-06-08T03:23:34.058Z,1.20
2019-06-08T03:24:32.905Z,1.10
2019-06-08T03:25:35.182Z,1.10
2019-06-08T03:26:34.249Z,1.00
2019-06-08T03:27:32.664Z,1.20
2019-06-08T03:28:32.625Z,1.00
2019-06-08T03:29:32.468Z,1.30
2019-06-08T03:30:35.302Z,1.10
2019-06-08T03:31:36.125Z,1.30
2019-06-08T03:32:34.840Z,1.00
2019-06-08T03:33:34.527Z,1.30
2019-06-08T03:34:35.571Z,0.90
2019-06-08T03:35:36.056Z,0.90
2019-06-08T03:36:35.823Z,0.90
2019-06-08T03:37:33.280Z,0.90
2019-06-08T03:38:33.595Z,1.20
2019-06-08T03:39:31.951Z,0.70
2019-06-08T03:40:33.791Z,1.10
2019-06-08T03:41:31.930Z,0.90
2019-06-08T03:42:31.920Z,0.80
2019-06-08T03:43:31.907Z,1.00
2019-06-08T03:44:31.903Z,1.00
2019-06-08T03:45:31.885Z,0.90
2019-06-08T03:46:31.872Z,1.20
2019-06-08T03:47:31.862Z,1.00
2019-06-08T03:48:31.854Z,1.00
2019-06-08T03:49:42.910Z,0.90
2019-06-08T03:50:32.831Z,1.00
2019-06-08T03:51:35.349Z,1.00
2019-06-08T03:52:32.808Z,1.20
2019-06-08T03:53:31.798Z,0.90
2019-06-08T03:54:31.793Z,1.00
2019-06-08T03:55:31.777Z,1.10
2019-06-08T03:56:31.764Z,1.20
2019-06-08T03:57:31.760Z,1.00
2019-06-08T03:58:34.124Z,1.10
2019-06-08T03:59:31.735Z,1.10
2019-06-08T04:00:31.721Z,0.80
2019-06-08T04:01:31.709Z,1.20
2019-06-08T04:02:31.699Z,1.00
2019-06-08T04:03:31.690Z,1.00
2019-06-08T04:04:31.689Z,0.90
2019-06-08T04:05:31.668Z,0.90
2019-06-08T04:06:31.655Z,1.20
2019-06-08T04:07:31.646Z,0.90
2019-06-08T04:08:31.635Z,1.00
2019-06-08T04:09:31.637Z,0.90
2019-06-08T04:10:31.614Z,0.90
2019-06-08T04:11:31.606Z,1.00
2019-06-08T04:12:31.594Z,0.80
2019-06-08T04:13:31.580Z,1.00
2019-06-08T04:14:31.600Z,0.90
2019-06-08T04:15:31.560Z,0.90
2019-06-08T04:16:31.552Z,0.80
2019-06-08T04:17:31.545Z,1.10
2019-06-08T04:18:31.526Z,1.10
2019-06-08T04:19:31.514Z,0.90
2019-06-08T04:20:31.503Z,1.10
2019-06-08T04:21:31.573Z,1.20
2019-06-08T04:22:31.483Z,1.00
2019-06-08T04:23:31.473Z,1.20
2019-06-08T04:24:31.463Z,1.10
2019-06-08T04:25:31.448Z,1.10
2019-06-08T04:26:31.445Z,1.00
2019-06-08T04:27:31.440Z,1.10
2019-06-08T04:28:31.429Z,0.90
2019-06-08T04:29:31.405Z,1.00
2019-06-08T04:30:31.396Z,1.10
2019-06-08T04:31:31.388Z,1.10
2019-06-08T04:32:31.376Z,1.00
2019-06-08T04:33:31.362Z,1.20
2019-06-08T04:34:31.356Z,1.20
2019-06-08T04:35:31.344Z,1.10
2019-06-08T04:36:31.330Z,1.00
2019-06-08T04:37:31.322Z,1.10
2019-06-08T04:38:31.307Z,1.10
2019-06-08T04:39:31.299Z,1.20
2019-06-08T04:40:31.291Z,1.00
2019-06-08T04:41:31.276Z,1.00
2019-06-08T04:42:31.276Z,1.00
2019-06-08T04:43:31.256Z,1.10
2019-06-08T04:44:31.245Z,1.00
2019-06-08T04:45:31.268Z,1.10
2019-06-08T04:46:31.222Z,1.10
2019-06-08T04:47:31.214Z,0.90
2019-06-08T04:48:31.201Z,0.80
2019-06-08T04:49:31.194Z,0.90
2019-06-08T04:50:31.181Z,0.90
2019-06-08T04:51:31.175Z,0.80
2019-06-08T04:52:31.162Z,0.80
2019-06-08T04:53:31.145Z,0.80
2019-06-08T04:54:31.157Z,0.70
2019-06-08T04:55:31.208Z,0.80
2019-06-08T04:56:31.114Z,0.80
2019-06-08T04:57:31.103Z,0.90
2019-06-08T04:58:31.095Z,1.00
2019-06-08T04:59:31.081Z,1.00
2019-06-08T05:00:31.525Z,0.80
2019-06-08T05:01:31.059Z,0.80
2019-06-08T05:02:31.047Z,0.90
2019-06-08T05:03:31.057Z,0.70
2019-06-08T05:04:31.032Z,0.90
2019-06-08T05:05:31.020Z,0.80
2019-06-08T05:06:31.029Z,0.90
2019-06-08T05:07:30.995Z,0.90
2019-06-08T05:08:30.983Z,0.90
2019-06-08T05:09:30.977Z,0.70
2019-06-08T05:10:30.962Z,0.70
2019-06-08T05:11:30.953Z,0.90
2019-06-08T05:12:30.950Z,1.00
2019-06-08T05:13:30.939Z,0.90
2019-06-08T05:14:30.926Z,0.80
2019-06-08T05:15:30.906Z,0.90
2019-06-08T05:16:30.901Z,1.00
2019-06-08T05:17:30.886Z,0.70
2019-06-08T05:18:30.875Z,0.80
2019-06-08T05:19:31.001Z,0.90
2019-06-08T05:20:38.837Z,0.70
2019-06-08T05:21:31.845Z,0.80
2019-06-08T05:22:30.832Z,1.00
2019-06-08T05:23:30.821Z,0.70
2019-06-08T05:24:30.814Z,0.90
2019-06-08T05:25:30.797Z,0.90
2019-06-08T05:26:30.799Z,0.80
2019-06-08T05:27:30.782Z,0.90
2019-06-08T05:28:30.791Z,0.90
2019-06-08T05:29:30.757Z,0.90
2019-06-08T05:30:30.743Z,0.90
2019-06-08T05:31:30.734Z,1.00
2019-06-08T05:32:30.724Z,0.80
2019-06-08T05:33:30.721Z,1.10
2019-06-08T05:34:30.703Z,0.90
2019-06-08T05:35:30.703Z,1.10
2019-06-08T05:36:30.682Z,1.10
2019-06-08T05:37:30.666Z,0.80
2019-06-08T05:38:30.662Z,0.90
2019-06-08T05:39:30.910Z,0.90
2019-06-08T05:40:30.634Z,1.00
2019-06-08T05:41:30.625Z,1.20
2019-06-08T05:42:30.614Z,1.00
2019-06-08T05:43:30.603Z,0.80
2019-06-08T05:44:30.608Z,1.00
2019-06-08T05:45:30.581Z,0.70
2019-06-08T05:46:30.568Z,0.90
2019-06-08T05:47:30.558Z,1.00
2019-06-08T05:48:30.545Z,0.80
2019-06-08T05:49:30.534Z,0.80
2019-06-08T05:50:30.539Z,0.60
2019-06-08T05:51:30.513Z,0.80
2019-06-08T05:52:30.538Z,0.90
2019-06-08T05:53:30.489Z,0.80
2019-06-08T05:54:30.487Z,0.80
2019-06-08T05:55:30.468Z,0.80
2019-06-08T05:56:30.458Z,0.80
2019-06-08T05:57:30.450Z,0.80
2019-06-08T05:58:30.436Z,0.70
2019-06-08T05:59:30.425Z,0.90
2019-06-08T06:00:30.414Z,0.90
2019-06-08T06:01:30.403Z,0.70
2019-06-08T06:02:30.394Z,0.70
2019-06-08T06:03:30.389Z,0.80
2019-06-08T06:04:30.384Z,0.90
2019-06-08T06:05:30.358Z,0.60
2019-06-08T06:06:30.349Z,0.60
2019-06-08T06:07:30.339Z,0.60
2019-06-08T06:08:30.342Z,0.70
2019-06-08T06:09:30.318Z,0.60
2019-06-08T06:10:30.305Z,0.70
2019-06-08T06:11:30.295Z,0.80
2019-06-08T06:12:30.283Z,0.80
2019-06-08T06:13:30.277Z,0.70
2019-06-08T06:14:30.270Z,0.80
2019-06-08T06:15:30.253Z,0.80
2019-06-08T06:16:30.239Z,0.60
2019-06-08T06:17:30.231Z,0.80
2019-06-08T06:18:30.222Z,0.80
2019-06-08T06:19:30.208Z,0.60
2019-06-08T06:20:30.199Z,0.70
2019-06-08T06:21:30.187Z,0.90
2019-06-08T06:22:30.173Z,0.80
2019-06-08T06:23:30.162Z,0.70
2019-06-08T06:24:30.164Z,0.60
2019-06-08T06:25:30.144Z,0.70
2019-06-08T06:26:30.132Z,0.60
2019-06-08T06:27:30.123Z,0.70
2019-06-08T06:28:30.113Z,0.70
2019-06-08T06:29:30.104Z,0.70
2019-06-08T06:30:30.090Z,0.60
2019-06-08T06:31:30.076Z,0.80
2019-06-08T06:32:30.080Z,0.60
2019-06-08T06:33:30.056Z,0.80
2019-06-08T06:34:30.048Z,0.50
2019-06-08T06:35:30.050Z,0.50
2019-06-08T06:36:30.021Z,0.70
2019-06-08T06:37:30.013Z,0.70
2019-06-08T06:38:30.002Z,0.50
2019-06-08T06:39:29.991Z,0.70
2019-06-08T06:40:29.984Z,0.70
2019-06-08T06:41:29.974Z,0.50
2019-06-08T06:42:29.961Z,0.40
2019-06-08T06:43:29.953Z,0.70
2019-06-08T06:44:29.944Z,0.60
2019-06-08T06:45:29.925Z,0.50
2019-06-08T06:46:29.913Z,0.40
2019-06-08T06:47:29.902Z,0.60
2019-06-08T06:48:29.896Z,0.50
2019-06-08T06:49:29.882Z,0.70
2019-06-08T06:50:29.889Z,0.50
2019-06-08T06:51:29.861Z,0.70
2019-06-08T06:52:29.849Z,0.70
2019-06-08T06:53:29.840Z,0.70
2019-06-08T06:54:29.849Z,0.60
2019-06-08T06:55:29.815Z,0.60
2019-06-08T06:56:29.805Z,0.60
2019-06-08T06:57:29.795Z,0.60
2019-06-08T06:58:29.783Z,0.60
2019-06-08T06:59:29.774Z,0.70
2019-06-08T07:00:29.761Z,0.50
2019-06-08T07:01:29.753Z,0.50
2019-06-08T07:02:29.740Z,0.50
2019-06-08T07:03:29.742Z,0.60
2019-06-08T07:04:29.726Z,0.60
2019-06-08T07:05:29.706Z,0.60
2019-06-08T07:06:29.696Z,0.50
2019-06-08T07:07:29.684Z,0.60
2019-06-08T07:08:29.679Z,0.70
2019-06-08T07:09:29.663Z,0.70
2019-06-08T07:10:29.654Z,0.60
2019-06-08T07:11:29.646Z,0.60
2019-06-08T07:12:29.634Z,0.60
2019-06-08T07:13:29.630Z,0.50
2019-06-08T07:14:29.611Z,0.50
2019-06-08T07:15:29.598Z,0.60
2019-06-08T07:16:29.587Z,0.60
2019-06-08T07:17:29.589Z,0.60
2019-06-08T07:18:29.566Z,0.50
2019-06-08T07:19:29.563Z,0.50
2019-06-08T07:20:29.549Z,0.50
2019-06-08T07:21:41.380Z,0.50
2019-06-08T07:22:30.523Z,0.50
2019-06-08T07:23:29.513Z,0.60
2019-06-08T07:24:29.503Z,0.60
2019-06-08T07:25:29.490Z,0.50
2019-06-08T07:26:29.481Z,0.60
2019-06-08T07:27:29.467Z,0.70
2019-06-08T07:28:29.466Z,0.60
2019-06-08T07:29:29.447Z,0.50
2019-06-08T07:30:29.437Z,0.70
2019-06-08T07:31:29.429Z,0.70
2019-06-08T07:32:29.415Z,0.50
2019-06-08T07:33:29.406Z,0.50
2019-06-08T07:34:29.395Z,0.50
2019-06-08T07:35:29.381Z,0.40
2019-06-08T07:36:29.371Z,0.50
2019-06-08T07:37:29.576Z,2.00
2019-06-08T07:38:29.350Z,0.90
2019-06-08T07:39:29.344Z,0.60
2019-06-08T07:40:29.326Z,0.60
2019-06-08T07:41:29.319Z,0.50
2019-06-08T07:42:29.308Z,0.70
2019-06-08T07:43:29.295Z,0.50
2019-06-08T07:44:29.289Z,0.50
2019-06-08T07:45:29.273Z,0.90
2019-06-08T07:46:29.263Z,1.30
2019-06-08T07:47:29.252Z,0.60
2019-06-08T07:48:29.240Z,0.60
2019-06-08T07:49:29.231Z,0.70
2019-06-08T07:50:29.219Z,0.60
2019-06-08T07:51:29.213Z,1.30
2019-06-08T07:52:29.197Z,2.30
2019-06-08T07:53:29.200Z,2.50
2019-06-08T07:54:29.183Z,1.30
2019-06-08T07:55:29.163Z,1.00
2019-06-08T07:56:29.154Z,1.00
2019-06-08T07:57:29.150Z,0.70
2019-06-08T07:58:29.132Z,0.80
2019-06-08T07:59:29.121Z,1.10
2019-06-08T08:00:29.111Z,0.60
2019-06-08T08:01:36.052Z,0.80
2019-06-08T08:02:30.085Z,1.00
2019-06-08T08:03:29.076Z,0.80
2019-06-08T08:04:29.067Z,1.10
2019-06-08T08:05:29.054Z,1.20
2019-06-08T08:06:30.435Z,1.20
2019-06-08T08:07:29.034Z,1.00
2019-06-08T08:08:29.022Z,1.00
2019-06-08T08:09:29.573Z,1.00
2019-06-08T08:10:29.006Z,1.20
2019-06-08T08:11:29.041Z,1.00
2019-06-08T08:12:28.981Z,1.10
2019-06-08T08:13:28.969Z,1.10
2019-06-08T08:14:28.961Z,1.20
2019-06-08T08:15:28.949Z,0.90
2019-06-08T08:16:28.934Z,1.10
2019-06-08T08:17:28.923Z,0.90
2019-06-08T08:18:28.917Z,0.70
2019-06-08T08:19:28.903Z,0.70
2019-06-08T08:20:28.890Z,0.50
2019-06-08T08:21:29.589Z,0.70
2019-06-08T08:22:29.589Z,0.70
2019-06-08T08:23:28.860Z,0.60
2019-06-08T08:24:28.853Z,0.50
2019-06-08T08:25:28.841Z,0.60
2019-06-08T08:26:31.308Z,0.50
2019-06-08T08:27:29.816Z,0.60
2019-06-08T08:28:28.805Z,0.60
2019-06-08T08:29:31.374Z,0.70
2019-06-08T08:30:28.782Z,0.50
2019-06-08T08:31:28.772Z,0.50
2019-06-08T08:32:28.767Z,0.50
2019-06-08T08:33:28.750Z,0.60
2019-06-08T08:34:28.748Z,0.50
2019-06-08T08:35:28.729Z,0.60
2019-06-08T08:36:30.129Z,0.70
2019-06-08T08:37:28.707Z,0.60
2019-06-08T08:38:28.700Z,0.50
2019-06-08T08:39:28.684Z,0.80
2019-06-08T08:40:28.676Z,0.60
2019-06-08T08:41:28.664Z,0.50
2019-06-08T08:42:30.134Z,0.80
2019-06-08T08:43:28.640Z,0.60
2019-06-08T08:44:28.633Z,0.70
2019-06-08T08:45:28.623Z,0.60
2019-06-08T08:46:28.724Z,0.60
2019-06-08T08:47:30.818Z,0.50
2019-06-08T08:48:31.502Z,0.60
2019-06-08T08:49:28.576Z,0.80
2019-06-08T08:50:28.566Z,0.60
2019-06-08T08:51:28.556Z,0.60
2019-06-08T08:52:36.806Z,0.50
2019-06-08T08:53:29.534Z,0.60
2019-06-08T08:54:29.788Z,0.60
2019-06-08T08:55:28.511Z,0.50
2019-06-08T08:56:28.498Z,0.70
2019-06-08T08:57:28.940Z,0.50
2019-06-08T08:58:28.483Z,0.50
2019-06-08T08:59:28.466Z,0.70
2019-06-08T09:00:28.456Z,0.60
2019-06-08T09:01:28.967Z,0.50
2019-06-08T09:02:28.437Z,0.60
2019-06-08T09:03:33.247Z,0.60
2019-06-08T09:04:29.418Z,0.60
2019-06-08T09:05:28.403Z,0.60
2019-06-08T09:06:28.430Z,0.50
2019-06-08T09:07:28.381Z,0.60
2019-06-08T09:08:29.935Z,0.60
2019-06-08T09:09:28.891Z,0.50
2019-06-08T09:10:28.347Z,0.60
2019-06-08T09:11:28.906Z,0.70
2019-06-08T09:12:28.338Z,0.50
2019-06-08T09:13:28.386Z,0.70
2019-06-08T09:14:28.312Z,0.60
2019-06-08T09:15:31.419Z,0.50
2019-06-08T09:16:28.859Z,0.50
2019-06-08T09:17:28.290Z,0.60
2019-06-08T09:18:28.691Z,0.60
2019-06-08T09:19:28.326Z,0.60
2019-06-08T09:20:28.647Z,0.70
2019-06-08T09:21:28.317Z,0.60
2019-06-08T09:22:31.170Z,0.80
2019-06-08T09:23:28.291Z,0.70
2019-06-08T09:24:28.603Z,0.60
2019-06-08T09:25:28.225Z,0.60
2019-06-08T09:26:28.745Z,0.60
2019-06-08T09:27:28.185Z,0.60
2019-06-08T09:28:28.582Z,0.60
2019-06-08T09:29:28.927Z,0.70
2019-06-08T09:30:28.145Z,0.60
2019-06-08T09:31:30.881Z,0.60
2019-06-08T09:32:28.326Z,0.60
2019-06-08T09:33:28.790Z,0.50
2019-06-08T09:34:28.379Z,0.70
2019-06-08T09:35:28.118Z,0.80
2019-06-08T09:36:28.647Z,0.80
2019-06-08T09:37:28.827Z,0.70
2019-06-08T09:38:28.724Z,0.60
2019-06-08T09:39:28.667Z,0.70
2019-06-08T09:40:31.857Z,0.70
2019-06-08T09:41:31.161Z,0.60
2019-06-08T09:42:28.481Z,0.70
2019-06-08T09:43:28.902Z,0.50
2019-06-08T09:44:28.191Z,0.70
2019-06-08T09:45:28.973Z,0.80
2019-06-08T09:46:28.236Z,0.60
2019-06-08T09:47:28.117Z,0.70
2019-06-08T09:48:28.862Z,0.60
2019-06-08T09:49:28.099Z,0.70
2019-06-08T09:50:27.973Z,0.60
2019-06-08T09:51:28.488Z,0.70
2019-06-08T09:52:28.264Z,0.50
2019-06-08T09:53:36.965Z,0.70
2019-06-08T09:54:28.870Z,0.90
2019-06-08T09:55:28.847Z,0.70
2019-06-08T09:56:28.416Z,0.70
2019-06-08T09:57:28.442Z,0.50
2019-06-08T09:58:29.104Z,0.70
2019-06-08T09:59:28.506Z,1.00
2019-06-08T10:00:29.289Z,0.60
2019-06-08T10:01:28.675Z,0.60
2019-06-08T10:02:28.363Z,0.70
2019-06-08T10:03:30.654Z,0.60
2019-06-08T10:04:29.164Z,0.70
2019-06-08T10:05:27.786Z,0.80
2019-06-08T10:06:27.820Z,0.70
2019-06-08T10:07:28.613Z,0.60
2019-06-08T10:08:28.281Z,0.80
2019-06-08T10:09:28.412Z,0.50
2019-06-08T10:10:27.693Z,0.80
2019-06-08T10:11:28.171Z,0.90
2019-06-08T10:12:28.187Z,0.80
2019-06-08T10:13:28.037Z,0.80
2019-06-08T10:14:28.179Z,0.70
2019-06-08T10:15:27.900Z,0.60
2019-06-08T10:16:30.537Z,0.80
2019-06-08T10:17:27.983Z,0.80
2019-06-08T10:18:28.491Z,0.60
2019-06-08T10:19:27.598Z,0.80
2019-06-08T10:20:28.825Z,0.80
2019-06-08T10:21:28.436Z,0.60
2019-06-08T10:22:28.287Z,0.70
2019-06-08T10:23:34.025Z,0.60
2019-06-08T10:24:28.552Z,0.70
2019-06-08T10:25:28.639Z,0.80
2019-06-08T10:26:28.029Z,0.80
2019-06-08T10:27:28.333Z,1.00
2019-06-08T10:28:29.002Z,0.70
2019-06-08T10:29:27.485Z,0.60
2019-06-08T10:30:30.111Z,0.80
2019-06-08T10:31:36.564Z,0.70
2019-06-08T10:32:28.465Z,0.80
2019-06-08T10:33:28.183Z,0.60
2019-06-08T10:34:29.592Z,0.80
2019-06-08T10:35:28.356Z,0.60
2019-06-08T10:36:28.389Z,0.70
2019-06-08T10:37:28.349Z,0.70
2019-06-08T10:38:28.989Z,0.80
2019-06-08T10:39:28.376Z,0.70
2019-06-08T10:40:28.515Z,0.90
2019-06-08T10:41:27.898Z,0.70
2019-06-08T10:42:27.345Z,0.70
2019-06-08T10:43:28.925Z,0.80
2019-06-08T10:44:28.391Z,0.70
2019-06-08T10:45:28.599Z,0.70
2019-06-08T10:46:27.303Z,0.80
2019-06-08T10:47:29.583Z,0.70
2019-06-08T10:48:27.679Z,0.90
2019-06-08T10:49:28.714Z,0.80
2019-06-08T10:50:28.807Z,0.90
2019-06-08T10:51:27.245Z,0.70
2019-06-08T10:52:28.169Z,0.70
2019-06-08T10:53:29.758Z,0.80
2019-06-08T10:54:28.210Z,0.80
2019-06-08T10:55:28.079Z,1.00
2019-06-08T10:56:30.905Z,0.80
2019-06-08T10:57:28.016Z,0.80
2019-06-08T10:58:28.392Z,0.80
2019-06-08T10:59:28.927Z,0.70
2019-06-08T11:00:28.144Z,0.70
2019-06-08T11:01:28.260Z,0.80
2019-06-08T11:02:28.233Z,0.70
2019-06-08T11:03:30.396Z,0.80
2019-06-08T11:04:28.662Z,0.90
2019-06-08T11:05:28.060Z,0.70
2019-06-08T11:06:27.109Z,1.10
2019-06-08T11:07:28.010Z,0.90
2019-06-08T11:08:27.650Z,0.80
2019-06-08T11:09:28.599Z,1.00
2019-06-08T11:10:27.053Z,0.90
2019-06-08T11:11:28.504Z,0.80
2019-06-08T11:12:28.319Z,0.80
2019-06-08T11:13:28.278Z,0.80
2019-06-08T11:14:27.997Z,0.60
2019-06-08T11:15:29.404Z,0.80
2019-06-08T11:16:28.662Z,0.90
2019-06-08T11:17:27.920Z,0.90
2019-06-08T11:18:28.639Z,0.80
2019-06-08T11:19:26.950Z,0.80
2019-06-08T11:20:27.563Z,0.80
2019-06-08T11:21:28.613Z,0.80
2019-06-08T11:22:27.881Z,0.80
2019-06-08T11:23:28.750Z,0.90
2019-06-08T11:24:28.798Z,0.90
2019-06-08T11:25:27.995Z,0.70
2019-06-08T11:26:28.927Z,1.00
2019-06-08T11:27:28.473Z,0.80
2019-06-08T11:28:28.355Z,0.90
2019-06-08T11:29:27.554Z,0.90
2019-06-08T11:30:30.317Z,0.70
2019-06-08T11:31:29.806Z,0.90
2019-06-08T11:32:27.803Z,0.80
2019-06-08T11:33:30.243Z,1.00
2019-06-08T11:34:28.695Z,0.80
2019-06-08T11:35:28.618Z,0.90
2019-06-08T11:36:28.215Z,1.00
2019-06-08T11:37:26.751Z,0.80
2019-06-08T11:38:28.889Z,0.80
2019-06-08T11:39:28.706Z,0.90
2019-06-08T11:40:27.857Z,0.90
2019-06-08T11:41:27.826Z,0.80
2019-06-08T11:42:28.638Z,1.20
2019-06-08T11:43:28.743Z,1.00
2019-06-08T11:44:27.615Z,1.00
2019-06-08T11:45:26.667Z,0.90
2019-06-08T11:46:28.173Z,0.80
2019-06-08T11:47:27.732Z,0.80
2019-06-08T11:48:28.538Z,0.80
2019-06-08T11:49:27.883Z,1.00
2019-06-08T11:50:26.612Z,0.90
2019-06-08T11:51:29.648Z,0.80
2019-06-08T11:52:28.579Z,0.90
2019-06-08T11:53:28.680Z,1.00
2019-06-08T11:54:34.369Z,0.80
2019-06-08T11:55:28.145Z,0.90
2019-06-08T11:56:26.548Z,0.80
2019-06-08T11:57:28.295Z,0.80
2019-06-08T11:58:28.262Z,1.00
2019-06-08T11:59:28.483Z,0.90
2019-06-08T12:00:30.706Z,1.00
2019-06-08T12:01:27.663Z,0.80
2019-06-08T12:02:26.488Z,0.90
2019-06-08T12:03:27.651Z,0.80
2019-06-08T12:04:28.334Z,0.80
2019-06-08T12:05:27.835Z,0.70
2019-06-08T12:06:26.448Z,0.90
2019-06-08T12:07:28.254Z,0.80
2019-06-08T12:08:28.435Z,0.90
2019-06-08T12:09:28.505Z,0.70
2019-06-08T12:10:28.460Z,0.90
2019-06-08T12:11:28.357Z,1.00
2019-06-08T12:12:28.278Z,0.90
2019-06-08T12:13:27.810Z,1.10
2019-06-08T12:14:26.358Z,1.00
2019-06-08T12:15:28.646Z,0.90
2019-06-08T12:16:28.233Z,0.80
2019-06-08T12:17:27.642Z,1.00
2019-06-08T12:18:26.312Z,0.90
2019-06-08T12:19:28.335Z,1.00
2019-06-08T12:20:27.983Z,1.20
2019-06-08T12:21:27.374Z,0.90
2019-06-08T12:22:26.271Z,0.80
2019-06-08T12:23:26.268Z,1.10
2019-06-08T12:24:40.856Z,1.10
2019-06-08T12:25:27.237Z,1.00
2019-06-08T12:26:26.225Z,0.90
2019-06-08T12:27:33.189Z,1.20
2019-06-08T12:28:28.063Z,1.00
2019-06-08T12:29:28.226Z,0.90
2019-06-08T12:30:29.452Z,1.10
2019-06-08T12:31:28.078Z,0.90
2019-06-08T12:32:27.852Z,1.00
2019-06-08T12:33:30.340Z,1.20
2019-06-08T12:34:28.070Z,1.10
2019-06-08T12:35:28.274Z,1.00
2019-06-08T12:36:28.734Z,0.90
2019-06-08T12:37:27.559Z,1.00
2019-06-08T12:38:30.042Z,0.90
2019-06-08T12:39:28.150Z,0.90
2019-06-08T12:40:28.110Z,1.10
2019-06-08T12:41:28.896Z,1.10
2019-06-08T12:42:28.360Z,1.10
2019-06-08T12:43:28.317Z,1.10
2019-06-08T12:44:28.933Z,1.00
2019-06-08T12:45:27.616Z,1.10
2019-06-08T12:46:27.974Z,0.90
2019-06-08T12:47:29.229Z,1.30
2019-06-08T12:48:25.990Z,0.80
2019-06-08T12:49:25.979Z,0.90
2019-06-08T12:50:28.103Z,1.00
2019-06-08T12:51:27.923Z,1.10
2019-06-08T12:52:29.523Z,0.90
2019-06-08T12:53:28.143Z,1.00
2019-06-08T12:54:28.261Z,1.00
2019-06-08T12:55:25.918Z,1.20
2019-06-08T12:56:25.906Z,0.90
2019-06-08T12:57:28.387Z,1.00
2019-06-08T12:58:27.569Z,1.00
2019-06-08T12:59:28.154Z,0.90
2019-06-08T13:00:27.947Z,0.90
2019-06-08T13:01:27.982Z,1.00
2019-06-08T13:02:27.955Z,1.10
2019-06-08T13:03:27.736Z,0.80
2019-06-08T13:04:25.823Z,0.90
2019-06-08T13:05:27.598Z,1.10
2019-06-08T13:06:28.086Z,0.80
2019-06-08T13:07:28.043Z,1.10
2019-06-08T13:08:25.791Z,1.30
2019-06-08T13:09:29.713Z,1.00
2019-06-08T13:10:27.722Z,1.00
2019-06-08T13:11:28.063Z,1.40
2019-06-08T13:12:25.740Z,1.10
2019-06-08T13:13:28.076Z,1.00
2019-06-08T13:14:25.720Z,1.30